sensor_id;sensor_type;location;lat;lon;timestamp;temperature;humidity
16627;DHT22;8427;52.204;7.202;2023-04-25T00:01:34;6.50;90.30
16627;DHT22;8427;52.204;7.202;2023-04-25T00:04:04;6.70;90.60
16627;DHT22;8427;52.204;7.202;2023-04-25T00:06:34;6.70;90.40
16627;DHT22;8427;52.204;7.202;2023-04-25T00:09:04;6.70;90.50
16627;DHT22;8427;52.204;7.202;2023-04-25T00:11:34;6.70;90.50
16627;DHT22;8427;52.204;7.202;2023-04-25T00:14:03;6.70;90.30
16627;DHT22;8427;52.204;7.202;2023-04-25T00:16:31;6.80;90.40
16627;DHT22;8427;52.204;7.202;2023-04-25T00:19:03;6.70;90.50
16627;DHT22;8427;52.204;7.202;2023-04-25T00:21:31;6.70;90.10
16627;DHT22;8427;52.204;7.202;2023-04-25T00:23:59;6.80;90.50
16627;DHT22;8427;52.204;7.202;2023-04-25T00:26:27;6.90;90.70
16627;DHT22;8427;52.204;7.202;2023-04-25T00:28:56;6.90;90.50
16627;DHT22;8427;52.204;7.202;2023-04-25T00:31:23;6.90;90.20
16627;DHT22;8427;52.204;7.202;2023-04-25T00:33:51;6.80;90.30
16627;DHT22;8427;52.204;7.202;2023-04-25T00:36:21;6.80;89.70
16627;DHT22;8427;52.204;7.202;2023-04-25T00:38:49;6.60;89.20
16627;DHT22;8427;52.204;7.202;2023-04-25T00:41:17;6.70;89.20
16627;DHT22;8427;52.204;7.202;2023-04-25T00:43:46;6.40;88.80
16627;DHT22;8427;52.204;7.202;2023-04-25T00:46:15;6.60;89.50
16627;DHT22;8427;52.204;7.202;2023-04-25T00:48:43;6.50;89.70
16627;DHT22;8427;52.204;7.202;2023-04-25T00:51:15;6.40;89.40
16627;DHT22;8427;52.204;7.202;2023-04-25T00:53:45;6.50;88.90
16627;DHT22;8427;52.204;7.202;2023-04-25T00:56:15;6.50;88.80
16627;DHT22;8427;52.204;7.202;2023-04-25T00:58:43;6.30;88.70
16627;DHT22;8427;52.204;7.202;2023-04-25T01:01:12;6.40;89.10
16627;DHT22;8427;52.204;7.202;2023-04-25T01:03:41;6.40;89.10
16627;DHT22;8427;52.204;7.202;2023-04-25T01:06:10;6.30;89.60
16627;DHT22;8427;52.204;7.202;2023-04-25T01:08:39;6.40;89.10
16627;DHT22;8427;52.204;7.202;2023-04-25T01:11:08;6.30;89.50
16627;DHT22;8427;52.204;7.202;2023-04-25T01:13:36;6.60;89.30
16627;DHT22;8427;52.204;7.202;2023-04-25T01:16:05;6.50;89.30
16627;DHT22;8427;52.204;7.202;2023-04-25T01:18:33;6.40;89.20
16627;DHT22;8427;52.204;7.202;2023-04-25T01:21:07;6.30;89.00
16627;DHT22;8427;52.204;7.202;2023-04-25T01:23:37;6.40;89.10
16627;DHT22;8427;52.204;7.202;2023-04-25T01:26:06;6.30;88.40
16627;DHT22;8427;52.204;7.202;2023-04-25T01:28:35;6.20;88.50
16627;DHT22;8427;52.204;7.202;2023-04-25T01:31:04;6.30;87.40
16627;DHT22;8427;52.204;7.202;2023-04-25T01:33:32;6.40;87.90
16627;DHT22;8427;52.204;7.202;2023-04-25T01:36:00;6.30;88.20
16627;DHT22;8427;52.204;7.202;2023-04-25T01:38:30;6.10;88.00
16627;DHT22;8427;52.204;7.202;2023-04-25T01:40:58;6.00;87.70
16627;DHT22;8427;52.204;7.202;2023-04-25T01:43:26;6.00;88.00
16627;DHT22;8427;52.204;7.202;2023-04-25T01:45:54;6.10;87.80
16627;DHT22;8427;52.204;7.202;2023-04-25T01:48:23;6.00;87.40
16627;DHT22;8427;52.204;7.202;2023-04-25T01:50:51;6.10;86.70
16627;DHT22;8427;52.204;7.202;2023-04-25T01:53:19;6.00;87.00
16627;DHT22;8427;52.204;7.202;2023-04-25T01:55:48;6.10;87.40
16627;DHT22;8427;52.204;7.202;2023-04-25T01:58:16;5.80;86.70
16627;DHT22;8427;52.204;7.202;2023-04-25T02:00:44;6.10;86.80
16627;DHT22;8427;52.204;7.202;2023-04-25T02:03:12;5.90;86.80
16627;DHT22;8427;52.204;7.202;2023-04-25T02:05:40;6.00;87.00
16627;DHT22;8427;52.204;7.202;2023-04-25T02:08:09;6.00;87.20
16627;DHT22;8427;52.204;7.202;2023-04-25T02:10:37;6.00;87.50
16627;DHT22;8427;52.204;7.202;2023-04-25T02:13:07;5.90;86.70
16627;DHT22;8427;52.204;7.202;2023-04-25T02:15:35;5.70;87.20
16627;DHT22;8427;52.204;7.202;2023-04-25T02:18:03;5.90;87.50
16627;DHT22;8427;52.204;7.202;2023-04-25T02:20:33;5.90;86.90
16627;DHT22;8427;52.204;7.202;2023-04-25T02:23:01;5.80;87.30
16627;DHT22;8427;52.204;7.202;2023-04-25T02:25:29;5.80;86.90
16627;DHT22;8427;52.204;7.202;2023-04-25T02:27:57;6.00;87.40
16627;DHT22;8427;52.204;7.202;2023-04-25T02:30:27;5.80;87.10
16627;DHT22;8427;52.204;7.202;2023-04-25T02:32:55;5.80;87.60
16627;DHT22;8427;52.204;7.202;2023-04-25T02:35:23;6.00;87.30
16627;DHT22;8427;52.204;7.202;2023-04-25T02:37:52;5.80;87.70
16627;DHT22;8427;52.204;7.202;2023-04-25T02:40:20;6.10;87.20
16627;DHT22;8427;52.204;7.202;2023-04-25T02:42:48;6.00;87.00
16627;DHT22;8427;52.204;7.202;2023-04-25T02:45:16;5.90;87.10
16627;DHT22;8427;52.204;7.202;2023-04-25T02:47:45;5.90;87.50
16627;DHT22;8427;52.204;7.202;2023-04-25T02:50:13;5.80;87.20
16627;DHT22;8427;52.204;7.202;2023-04-25T02:52:41;5.80;87.00
16627;DHT22;8427;52.204;7.202;2023-04-25T02:55:09;5.70;87.20
16627;DHT22;8427;52.204;7.202;2023-04-25T02:57:37;5.80;86.90
16627;DHT22;8427;52.204;7.202;2023-04-25T03:00:06;5.70;86.60
16627;DHT22;8427;52.204;7.202;2023-04-25T03:02:34;5.60;86.50
16627;DHT22;8427;52.204;7.202;2023-04-25T03:05:04;5.70;87.30
16627;DHT22;8427;52.204;7.202;2023-04-25T03:07:32;5.90;87.30
16627;DHT22;8427;52.204;7.202;2023-04-25T03:10:00;5.70;86.60
16627;DHT22;8427;52.204;7.202;2023-04-25T03:12:29;5.80;86.80
16627;DHT22;8427;52.204;7.202;2023-04-25T03:14:57;5.90;87.00
16627;DHT22;8427;52.204;7.202;2023-04-25T03:17:25;6.00;87.00
16627;DHT22;8427;52.204;7.202;2023-04-25T03:19:53;5.90;86.30
16627;DHT22;8427;52.204;7.202;2023-04-25T03:22:23;5.90;86.80
16627;DHT22;8427;52.204;7.202;2023-04-25T03:24:51;5.90;86.10
16627;DHT22;8427;52.204;7.202;2023-04-25T03:27:19;5.80;86.70
16627;DHT22;8427;52.204;7.202;2023-04-25T03:29:47;5.80;86.00
16627;DHT22;8427;52.204;7.202;2023-04-25T03:32:15;5.70;85.90
16627;DHT22;8427;52.204;7.202;2023-04-25T03:34:43;5.70;86.10
16627;DHT22;8427;52.204;7.202;2023-04-25T03:37:11;5.70;85.80
16627;DHT22;8427;52.204;7.202;2023-04-25T03:39:41;5.90;85.80
16627;DHT22;8427;52.204;7.202;2023-04-25T03:42:09;5.60;85.80
16627;DHT22;8427;52.204;7.202;2023-04-25T03:44:37;5.90;85.90
16627;DHT22;8427;52.204;7.202;2023-04-25T03:47:05;5.70;85.80
16627;DHT22;8427;52.204;7.202;2023-04-25T03:49:33;5.80;85.50
16627;DHT22;8427;52.204;7.202;2023-04-25T03:52:02;5.60;85.50
16627;DHT22;8427;52.204;7.202;2023-04-25T03:54:30;5.60;85.90
16627;DHT22;8427;52.204;7.202;2023-04-25T03:57:02;5.60;85.30
16627;DHT22;8427;52.204;7.202;2023-04-25T03:59:30;5.50;85.50
16627;DHT22;8427;52.204;7.202;2023-04-25T04:01:58;5.50;85.60
16627;DHT22;8427;52.204;7.202;2023-04-25T04:04:25;5.70;86.40
16627;DHT22;8427;52.204;7.202;2023-04-25T04:06:54;5.60;85.80
16627;DHT22;8427;52.204;7.202;2023-04-25T04:09:22;5.40;85.70
16627;DHT22;8427;52.204;7.202;2023-04-25T04:11:50;5.30;86.10
16627;DHT22;8427;52.204;7.202;2023-04-25T04:14:19;5.60;86.00
16627;DHT22;8427;52.204;7.202;2023-04-25T04:16:47;5.60;85.60
16627;DHT22;8427;52.204;7.202;2023-04-25T04:19:15;5.70;85.80
16627;DHT22;8427;52.204;7.202;2023-04-25T04:21:43;5.30;85.20
16627;DHT22;8427;52.204;7.202;2023-04-25T04:24:11;5.50;85.80
16627;DHT22;8427;52.204;7.202;2023-04-25T04:26:39;5.60;85.00
16627;DHT22;8427;52.204;7.202;2023-04-25T04:29:07;5.50;85.10
16627;DHT22;8427;52.204;7.202;2023-04-25T04:31:36;5.30;85.40
16627;DHT22;8427;52.204;7.202;2023-04-25T04:34:04;5.50;84.40
16627;DHT22;8427;52.204;7.202;2023-04-25T04:36:33;5.40;83.80
16627;DHT22;8427;52.204;7.202;2023-04-25T04:39:00;5.50;84.30
16627;DHT22;8427;52.204;7.202;2023-04-25T04:41:30;5.50;83.00
16627;DHT22;8427;52.204;7.202;2023-04-25T04:43:57;5.50;83.10
16627;DHT22;8427;52.204;7.202;2023-04-25T04:46:27;5.50;83.40
16627;DHT22;8427;52.204;7.202;2023-04-25T04:48:57;5.50;82.60
16627;DHT22;8427;52.204;7.202;2023-04-25T04:51:25;5.60;83.00
16627;DHT22;8427;52.204;7.202;2023-04-25T04:53:53;5.50;82.50
16627;DHT22;8427;52.204;7.202;2023-04-25T04:56:25;5.70;82.10
16627;DHT22;8427;52.204;7.202;2023-04-25T04:58:53;5.50;82.60
16627;DHT22;8427;52.204;7.202;2023-04-25T05:01:21;5.50;82.50
16627;DHT22;8427;52.204;7.202;2023-04-25T05:03:49;5.40;82.70
16627;DHT22;8427;52.204;7.202;2023-04-25T05:06:20;5.50;82.00
16627;DHT22;8427;52.204;7.202;2023-04-25T05:08:48;5.70;82.20
16627;DHT22;8427;52.204;7.202;2023-04-25T05:11:16;5.60;82.30
16627;DHT22;8427;52.204;7.202;2023-04-25T05:13:44;5.60;82.50
16627;DHT22;8427;52.204;7.202;2023-04-25T05:16:12;5.50;81.80
16627;DHT22;8427;52.204;7.202;2023-04-25T05:18:40;5.80;81.90
16627;DHT22;8427;52.204;7.202;2023-04-25T05:21:08;5.80;82.70
16627;DHT22;8427;52.204;7.202;2023-04-25T05:23:37;5.70;81.90
16627;DHT22;8427;52.204;7.202;2023-04-25T05:26:05;5.80;82.40
16627;DHT22;8427;52.204;7.202;2023-04-25T05:28:40;5.90;82.00
16627;DHT22;8427;52.204;7.202;2023-04-25T05:31:09;5.70;82.50
16627;DHT22;8427;52.204;7.202;2023-04-25T05:33:37;5.60;82.10
16627;DHT22;8427;52.204;7.202;2023-04-25T05:36:06;5.70;82.60
16627;DHT22;8427;52.204;7.202;2023-04-25T05:38:34;5.80;81.50
16627;DHT22;8427;52.204;7.202;2023-04-25T05:41:04;5.90;81.40
16627;DHT22;8427;52.204;7.202;2023-04-25T05:43:32;6.00;82.10
16627;DHT22;8427;52.204;7.202;2023-04-25T05:46:00;5.70;80.90
16627;DHT22;8427;52.204;7.202;2023-04-25T05:48:28;5.90;81.30
16627;DHT22;8427;52.204;7.202;2023-04-25T05:50:56;5.90;81.40
16627;DHT22;8427;52.204;7.202;2023-04-25T05:53:24;6.00;81.30
16627;DHT22;8427;52.204;7.202;2023-04-25T05:55:52;6.10;81.10
16627;DHT22;8427;52.204;7.202;2023-04-25T05:58:22;6.00;81.20
16627;DHT22;8427;52.204;7.202;2023-04-25T06:00:50;6.10;82.20
16627;DHT22;8427;52.204;7.202;2023-04-25T06:03:18;6.30;81.70
16627;DHT22;8427;52.204;7.202;2023-04-25T06:05:47;6.20;81.50
16627;DHT22;8427;52.204;7.202;2023-04-25T06:08:15;6.20;81.40
16627;DHT22;8427;52.204;7.202;2023-04-25T06:10:43;6.20;81.40
16627;DHT22;8427;52.204;7.202;2023-04-25T06:13:11;6.30;80.20
16627;DHT22;8427;52.204;7.202;2023-04-25T06:15:41;6.40;81.10
16627;DHT22;8427;52.204;7.202;2023-04-25T06:18:09;6.70;80.10
16627;DHT22;8427;52.204;7.202;2023-04-25T06:20:37;6.70;78.90
16627;DHT22;8427;52.204;7.202;2023-04-25T06:23:05;6.80;78.90
16627;DHT22;8427;52.204;7.202;2023-04-25T06:25:33;6.60;79.50
16627;DHT22;8427;52.204;7.202;2023-04-25T06:28:01;6.80;80.30
16627;DHT22;8427;52.204;7.202;2023-04-25T06:30:29;7.10;79.80
16627;DHT22;8427;52.204;7.202;2023-04-25T06:32:59;7.00;78.00
16627;DHT22;8427;52.204;7.202;2023-04-25T06:35:27;7.20;78.80
16627;DHT22;8427;52.204;7.202;2023-04-25T06:37:55;7.20;79.40
16627;DHT22;8427;52.204;7.202;2023-04-25T06:40:23;6.90;76.50
16627;DHT22;8427;52.204;7.202;2023-04-25T06:42:51;6.80;78.00
16627;DHT22;8427;52.204;7.202;2023-04-25T06:45:19;7.20;77.50
16627;DHT22;8427;52.204;7.202;2023-04-25T06:47:47;7.10;77.60
16627;DHT22;8427;52.204;7.202;2023-04-25T06:50:16;7.50;77.70
16627;DHT22;8427;52.204;7.202;2023-04-25T06:52:44;7.30;77.40
16627;DHT22;8427;52.204;7.202;2023-04-25T06:55:12;7.20;76.40
16627;DHT22;8427;52.204;7.202;2023-04-25T06:57:40;7.40;77.20
16627;DHT22;8427;52.204;7.202;2023-04-25T07:00:09;7.50;76.20
16627;DHT22;8427;52.204;7.202;2023-04-25T07:02:37;7.20;75.00
16627;DHT22;8427;52.204;7.202;2023-04-25T07:05:05;7.10;76.50
16627;DHT22;8427;52.204;7.202;2023-04-25T07:07:35;7.10;74.90
16627;DHT22;8427;52.204;7.202;2023-04-25T07:10:03;7.00;76.80
16627;DHT22;8427;52.204;7.202;2023-04-25T07:12:32;7.10;75.60
16627;DHT22;8427;52.204;7.202;2023-04-25T07:15:00;7.00;76.70
16627;DHT22;8427;52.204;7.202;2023-04-25T07:17:32;7.00;76.10
16627;DHT22;8427;52.204;7.202;2023-04-25T07:20:01;7.10;75.20
16627;DHT22;8427;52.204;7.202;2023-04-25T07:22:30;7.10;75.80
16627;DHT22;8427;52.204;7.202;2023-04-25T07:24:59;7.20;72.30
16627;DHT22;8427;52.204;7.202;2023-04-25T07:27:27;7.30;73.10
16627;DHT22;8427;52.204;7.202;2023-04-25T07:29:55;7.60;74.40
16627;DHT22;8427;52.204;7.202;2023-04-25T07:32:24;7.50;70.40
16627;DHT22;8427;52.204;7.202;2023-04-25T07:34:53;7.50;69.30
16627;DHT22;8427;52.204;7.202;2023-04-25T07:37:21;7.60;69.00
16627;DHT22;8427;52.204;7.202;2023-04-25T07:39:49;7.50;71.80
16627;DHT22;8427;52.204;7.202;2023-04-25T07:42:18;7.70;73.70
16627;DHT22;8427;52.204;7.202;2023-04-25T07:44:46;7.80;67.00
16627;DHT22;8427;52.204;7.202;2023-04-25T07:47:14;8.00;66.60
16627;DHT22;8427;52.204;7.202;2023-04-25T07:49:42;8.10;64.30
16627;DHT22;8427;52.204;7.202;2023-04-25T07:52:10;8.00;65.90
16627;DHT22;8427;52.204;7.202;2023-04-25T07:54:38;8.20;64.30
16627;DHT22;8427;52.204;7.202;2023-04-25T07:57:06;8.30;63.50
16627;DHT22;8427;52.204;7.202;2023-04-25T07:59:35;8.60;63.60
16627;DHT22;8427;52.204;7.202;2023-04-25T08:02:03;8.70;63.90
16627;DHT22;8427;52.204;7.202;2023-04-25T08:04:32;8.80;61.00
16627;DHT22;8427;52.204;7.202;2023-04-25T08:07:00;9.40;61.40
16627;DHT22;8427;52.204;7.202;2023-04-25T08:09:28;9.50;61.50
16627;DHT22;8427;52.204;7.202;2023-04-25T08:12:00;9.30;59.80
16627;DHT22;8427;52.204;7.202;2023-04-25T08:14:29;9.00;61.70
16627;DHT22;8427;52.204;7.202;2023-04-25T08:17:04;8.50;60.20
16627;DHT22;8427;52.204;7.202;2023-04-25T08:19:32;8.70;60.10
16627;DHT22;8427;52.204;7.202;2023-04-25T08:22:00;8.40;61.50
16627;DHT22;8427;52.204;7.202;2023-04-25T08:24:28;8.30;60.70
16627;DHT22;8427;52.204;7.202;2023-04-25T08:26:56;8.40;62.60
16627;DHT22;8427;52.204;7.202;2023-04-25T08:29:25;8.90;62.40
16627;DHT22;8427;52.204;7.202;2023-04-25T08:31:55;9.00;59.10
16627;DHT22;8427;52.204;7.202;2023-04-25T08:34:24;8.80;61.70
16627;DHT22;8427;52.204;7.202;2023-04-25T08:36:53;8.90;59.90
16627;DHT22;8427;52.204;7.202;2023-04-25T08:39:21;8.90;62.70
16627;DHT22;8427;52.204;7.202;2023-04-25T08:41:49;9.00;57.40
16627;DHT22;8427;52.204;7.202;2023-04-25T08:44:19;9.50;59.90
16627;DHT22;8427;52.204;7.202;2023-04-25T08:46:48;9.90;58.20
16627;DHT22;8427;52.204;7.202;2023-04-25T08:49:17;9.70;56.50
16627;DHT22;8427;52.204;7.202;2023-04-25T08:51:47;9.70;59.60
16627;DHT22;8427;52.204;7.202;2023-04-25T08:54:17;9.40;53.60
16627;DHT22;8427;52.204;7.202;2023-04-25T08:57:02;8.90;55.30
16627;DHT22;8427;52.204;7.202;2023-04-25T08:59:32;8.70;58.60
16627;DHT22;8427;52.204;7.202;2023-04-25T09:02:03;8.90;57.80
16627;DHT22;8427;52.204;7.202;2023-04-25T09:04:31;9.10;58.10
16627;DHT22;8427;52.204;7.202;2023-04-25T09:07:01;9.30;55.60
16627;DHT22;8427;52.204;7.202;2023-04-25T09:09:29;9.40;58.20
16627;DHT22;8427;52.204;7.202;2023-04-25T09:11:58;9.60;53.70
16627;DHT22;8427;52.204;7.202;2023-04-25T09:14:28;9.90;54.40
16627;DHT22;8427;52.204;7.202;2023-04-25T09:17:01;10.00;51.00
16627;DHT22;8427;52.204;7.202;2023-04-25T09:19:31;9.90;50.10
16627;DHT22;8427;52.204;7.202;2023-04-25T09:22:04;9.80;50.10
16627;DHT22;8427;52.204;7.202;2023-04-25T09:24:34;9.80;51.60
16627;DHT22;8427;52.204;7.202;2023-04-25T09:27:06;9.80;51.50
16627;DHT22;8427;52.204;7.202;2023-04-25T09:29:36;10.10;52.20
16627;DHT22;8427;52.204;7.202;2023-04-25T09:32:20;10.10;53.30
16627;DHT22;8427;52.204;7.202;2023-04-25T09:34:50;10.40;53.40
16627;DHT22;8427;52.204;7.202;2023-04-25T09:37:21;10.40;49.50
16627;DHT22;8427;52.204;7.202;2023-04-25T09:39:50;10.20;52.10
16627;DHT22;8427;52.204;7.202;2023-04-25T09:42:22;10.10;51.30
16627;DHT22;8427;52.204;7.202;2023-04-25T09:44:52;9.90;52.60
16627;DHT22;8427;52.204;7.202;2023-04-25T09:47:22;9.80;58.90
16627;DHT22;8427;52.204;7.202;2023-04-25T09:49:51;9.40;59.30
16627;DHT22;8427;52.204;7.202;2023-04-25T09:52:23;9.00;61.10
16627;DHT22;8427;52.204;7.202;2023-04-25T09:54:52;8.90;63.90
16627;DHT22;8427;52.204;7.202;2023-04-25T09:57:22;8.90;64.70
16627;DHT22;8427;52.204;7.202;2023-04-25T09:59:52;9.10;63.80
16627;DHT22;8427;52.204;7.202;2023-04-25T10:02:21;9.00;65.40
16627;DHT22;8427;52.204;7.202;2023-04-25T10:04:50;9.10;63.30
16627;DHT22;8427;52.204;7.202;2023-04-25T10:07:24;9.20;58.70
16627;DHT22;8427;52.204;7.202;2023-04-25T10:09:58;9.30;59.10
16627;DHT22;8427;52.204;7.202;2023-04-25T10:12:28;9.20;60.00
16627;DHT22;8427;52.204;7.202;2023-04-25T10:14:58;9.10;58.60
16627;DHT22;8427;52.204;7.202;2023-04-25T10:17:27;9.50;57.90
16627;DHT22;8427;52.204;7.202;2023-04-25T10:19:55;9.50;57.30
16627;DHT22;8427;52.204;7.202;2023-04-25T10:22:29;9.40;58.50
16627;DHT22;8427;52.204;7.202;2023-04-25T10:24:58;9.50;59.90
16627;DHT22;8427;52.204;7.202;2023-04-25T10:27:27;9.10;58.50
16627;DHT22;8427;52.204;7.202;2023-04-25T10:30:03;9.20;63.50
16627;DHT22;8427;52.204;7.202;2023-04-25T10:32:32;9.00;69.80
16627;DHT22;8427;52.204;7.202;2023-04-25T10:35:11;8.70;68.50
16627;DHT22;8427;52.204;7.202;2023-04-25T10:37:56;8.10;70.50
16627;DHT22;8427;52.204;7.202;2023-04-25T10:40:25;7.90;70.10
16627;DHT22;8427;52.204;7.202;2023-04-25T10:42:53;7.60;69.00
16627;DHT22;8427;52.204;7.202;2023-04-25T10:45:22;7.80;69.50
16627;DHT22;8427;52.204;7.202;2023-04-25T10:47:51;7.80;67.30
16627;DHT22;8427;52.204;7.202;2023-04-25T10:50:18;7.90;69.70
16627;DHT22;8427;52.204;7.202;2023-04-25T10:52:48;8.30;69.40
16627;DHT22;8427;52.204;7.202;2023-04-25T10:55:16;8.50;61.90
16627;DHT22;8427;52.204;7.202;2023-04-25T10:57:45;8.50;64.00
16627;DHT22;8427;52.204;7.202;2023-04-25T11:00:16;8.90;62.80
16627;DHT22;8427;52.204;7.202;2023-04-25T11:02:46;8.70;59.80
16627;DHT22;8427;52.204;7.202;2023-04-25T11:05:23;8.80;59.50
16627;DHT22;8427;52.204;7.202;2023-04-25T11:08:00;9.10;63.20
16627;DHT22;8427;52.204;7.202;2023-04-25T11:10:34;9.20;61.50
16627;DHT22;8427;52.204;7.202;2023-04-25T11:13:03;9.50;58.20
16627;DHT22;8427;52.204;7.202;2023-04-25T11:15:31;9.80;56.90
16627;DHT22;8427;52.204;7.202;2023-04-25T11:17:59;9.80;62.70
16627;DHT22;8427;52.204;7.202;2023-04-25T11:20:28;10.00;56.20
16627;DHT22;8427;52.204;7.202;2023-04-25T11:22:57;10.30;58.20
16627;DHT22;8427;52.204;7.202;2023-04-25T11:25:28;10.40;58.80
16627;DHT22;8427;52.204;7.202;2023-04-25T11:27:57;10.90;57.00
16627;DHT22;8427;52.204;7.202;2023-04-25T11:30:27;11.10;51.70
16627;DHT22;8427;52.204;7.202;2023-04-25T11:32:56;11.10;52.40
16627;DHT22;8427;52.204;7.202;2023-04-25T11:35:24;11.30;54.10
16627;DHT22;8427;52.204;7.202;2023-04-25T11:37:52;11.30;54.60
16627;DHT22;8427;52.204;7.202;2023-04-25T11:40:20;11.10;49.60
16627;DHT22;8427;52.204;7.202;2023-04-25T11:42:50;11.00;51.80
16627;DHT22;8427;52.204;7.202;2023-04-25T11:45:22;10.60;49.60
16627;DHT22;8427;52.204;7.202;2023-04-25T11:47:51;10.30;51.00
16627;DHT22;8427;52.204;7.202;2023-04-25T11:50:19;10.20;53.50
16627;DHT22;8427;52.204;7.202;2023-04-25T11:52:48;10.10;55.60
16627;DHT22;8427;52.204;7.202;2023-04-25T11:55:18;10.10;54.40
16627;DHT22;8427;52.204;7.202;2023-04-25T11:57:49;9.90;55.50
16627;DHT22;8427;52.204;7.202;2023-04-25T12:00:19;9.60;58.80
16627;DHT22;8427;52.204;7.202;2023-04-25T12:02:51;10.20;58.50
16627;DHT22;8427;52.204;7.202;2023-04-25T12:05:23;10.80;58.90
16627;DHT22;8427;52.204;7.202;2023-04-25T12:08:10;11.20;55.40
16627;DHT22;8427;52.204;7.202;2023-04-25T12:10:40;11.50;51.00
16627;DHT22;8427;52.204;7.202;2023-04-25T12:13:20;11.60;52.20
16627;DHT22;8427;52.204;7.202;2023-04-25T12:15:48;11.40;50.10
16627;DHT22;8427;52.204;7.202;2023-04-25T12:18:19;11.40;49.80
16627;DHT22;8427;52.204;7.202;2023-04-25T12:20:48;11.60;53.00
16627;DHT22;8427;52.204;7.202;2023-04-25T12:23:16;11.70;52.70
16627;DHT22;8427;52.204;7.202;2023-04-25T12:25:44;11.70;51.40
16627;DHT22;8427;52.204;7.202;2023-04-25T12:28:14;11.40;53.80
16627;DHT22;8427;52.204;7.202;2023-04-25T12:30:54;10.40;61.90
16627;DHT22;8427;52.204;7.202;2023-04-25T12:33:23;9.60;68.30
16627;DHT22;8427;52.204;7.202;2023-04-25T12:35:51;9.20;72.90
16627;DHT22;8427;52.204;7.202;2023-04-25T12:38:23;8.60;74.30
16627;DHT22;8427;52.204;7.202;2023-04-25T12:40:51;8.30;75.80
16627;DHT22;8427;52.204;7.202;2023-04-25T12:43:19;8.00;72.90
16627;DHT22;8427;52.204;7.202;2023-04-25T12:45:48;7.50;77.40
16627;DHT22;8427;52.204;7.202;2023-04-25T12:48:19;7.80;79.70
16627;DHT22;8427;52.204;7.202;2023-04-25T12:50:48;7.80;78.60
16627;DHT22;8427;52.204;7.202;2023-04-25T12:53:16;8.00;76.60
16627;DHT22;8427;52.204;7.202;2023-04-25T12:55:44;8.00;78.30
16627;DHT22;8427;52.204;7.202;2023-04-25T12:58:13;8.10;79.30
16627;DHT22;8427;52.204;7.202;2023-04-25T13:00:41;8.30;73.20
16627;DHT22;8427;52.204;7.202;2023-04-25T13:03:10;8.40;71.30
16627;DHT22;8427;52.204;7.202;2023-04-25T13:05:40;8.70;73.30
16627;DHT22;8427;52.204;7.202;2023-04-25T13:08:08;8.90;68.70
16627;DHT22;8427;52.204;7.202;2023-04-25T13:10:36;9.30;75.30
16627;DHT22;8427;52.204;7.202;2023-04-25T13:13:05;9.30;66.30
16627;DHT22;8427;52.204;7.202;2023-04-25T13:15:33;9.30;67.70
16627;DHT22;8427;52.204;7.202;2023-04-25T13:18:03;9.60;62.00
16627;DHT22;8427;52.204;7.202;2023-04-25T13:20:32;10.00;63.30
16627;DHT22;8427;52.204;7.202;2023-04-25T13:23:01;10.20;62.10
16627;DHT22;8427;52.204;7.202;2023-04-25T13:25:29;10.40;64.20
16627;DHT22;8427;52.204;7.202;2023-04-25T13:27:57;10.70;60.40
16627;DHT22;8427;52.204;7.202;2023-04-25T13:30:25;10.80;60.30
16627;DHT22;8427;52.204;7.202;2023-04-25T13:32:54;10.50;53.50
16627;DHT22;8427;52.204;7.202;2023-04-25T13:35:23;10.20;54.30
16627;DHT22;8427;52.204;7.202;2023-04-25T13:37:52;10.40;56.20
16627;DHT22;8427;52.204;7.202;2023-04-25T13:40:22;10.30;53.00
16627;DHT22;8427;52.204;7.202;2023-04-25T13:42:51;10.00;51.60
16627;DHT22;8427;52.204;7.202;2023-04-25T13:45:19;10.20;54.10
16627;DHT22;8427;52.204;7.202;2023-04-25T13:47:48;10.50;54.60
16627;DHT22;8427;52.204;7.202;2023-04-25T13:50:17;10.90;57.60
16627;DHT22;8427;52.204;7.202;2023-04-25T13:52:45;10.80;55.40
16627;DHT22;8427;52.204;7.202;2023-04-25T13:55:13;10.50;56.30
16627;DHT22;8427;52.204;7.202;2023-04-25T13:57:42;9.70;61.20
16627;DHT22;8427;52.204;7.202;2023-04-25T14:00:11;9.00;67.20
16627;DHT22;8427;52.204;7.202;2023-04-25T14:02:40;9.10;66.40
16627;DHT22;8427;52.204;7.202;2023-04-25T14:05:08;8.90;67.00
16627;DHT22;8427;52.204;7.202;2023-04-25T14:07:36;8.80;67.20
16627;DHT22;8427;52.204;7.202;2023-04-25T14:10:05;9.00;64.60
16627;DHT22;8427;52.204;7.202;2023-04-25T14:12:34;9.10;65.70
16627;DHT22;8427;52.204;7.202;2023-04-25T14:15:04;9.40;65.70
16627;DHT22;8427;52.204;7.202;2023-04-25T14:17:32;9.80;60.80
16627;DHT22;8427;52.204;7.202;2023-04-25T14:20:00;10.10;61.40
16627;DHT22;8427;52.204;7.202;2023-04-25T14:22:28;10.10;60.30
16627;DHT22;8427;52.204;7.202;2023-04-25T14:24:56;10.10;60.40
16627;DHT22;8427;52.204;7.202;2023-04-25T14:27:24;10.00;58.60
16627;DHT22;8427;52.204;7.202;2023-04-25T14:29:54;9.80;62.00
16627;DHT22;8427;52.204;7.202;2023-04-25T14:32:24;10.00;61.00
16627;DHT22;8427;52.204;7.202;2023-04-25T14:34:52;10.00;61.00
16627;DHT22;8427;52.204;7.202;2023-04-25T14:37:20;10.10;61.50
16627;DHT22;8427;52.204;7.202;2023-04-25T14:39:48;10.40;62.40
16627;DHT22;8427;52.204;7.202;2023-04-25T14:42:16;10.90;59.50
16627;DHT22;8427;52.204;7.202;2023-04-25T14:44:43;11.40;60.10
16627;DHT22;8427;52.204;7.202;2023-04-25T14:47:12;11.30;53.70
16627;DHT22;8427;52.204;7.202;2023-04-25T14:49:41;11.40;54.30
16627;DHT22;8427;52.204;7.202;2023-04-25T14:52:09;11.30;51.70
16627;DHT22;8427;52.204;7.202;2023-04-25T14:54:37;11.30;53.30
16627;DHT22;8427;52.204;7.202;2023-04-25T14:57:05;11.20;53.20
16627;DHT22;8427;52.204;7.202;2023-04-25T14:59:32;10.90;53.00
16627;DHT22;8427;52.204;7.202;2023-04-25T15:02:00;10.70;56.70
16627;DHT22;8427;52.204;7.202;2023-04-25T15:04:29;10.50;56.80
16627;DHT22;8427;52.204;7.202;2023-04-25T15:06:58;10.20;53.70
16627;DHT22;8427;52.204;7.202;2023-04-25T15:09:26;10.10;56.60
16627;DHT22;8427;52.204;7.202;2023-04-25T15:11:55;10.10;56.60
16627;DHT22;8427;52.204;7.202;2023-04-25T15:14:23;9.90;55.10
16627;DHT22;8427;52.204;7.202;2023-04-25T15:16:51;9.90;59.30
16627;DHT22;8427;52.204;7.202;2023-04-25T15:19:19;10.20;58.30
16627;DHT22;8427;52.204;7.202;2023-04-25T15:21:46;10.30;56.00
16627;DHT22;8427;52.204;7.202;2023-04-25T15:24:16;10.70;54.20
16627;DHT22;8427;52.204;7.202;2023-04-25T15:26:44;10.80;56.90
16627;DHT22;8427;52.204;7.202;2023-04-25T15:29:13;10.60;58.30
16627;DHT22;8427;52.204;7.202;2023-04-25T15:31:42;10.40;58.30
16627;DHT22;8427;52.204;7.202;2023-04-25T15:34:09;10.30;59.30
16627;DHT22;8427;52.204;7.202;2023-04-25T15:36:38;10.10;57.60
16627;DHT22;8427;52.204;7.202;2023-04-25T15:39:05;10.20;61.00
16627;DHT22;8427;52.204;7.202;2023-04-25T15:41:35;10.10;59.70
16627;DHT22;8427;52.204;7.202;2023-04-25T15:44:03;9.80;57.20
16627;DHT22;8427;52.204;7.202;2023-04-25T15:46:33;9.20;59.30
16627;DHT22;8427;52.204;7.202;2023-04-25T15:49:01;8.80;62.20
16627;DHT22;8427;52.204;7.202;2023-04-25T15:51:29;8.50;65.60
16627;DHT22;8427;52.204;7.202;2023-04-25T15:56:37;8.10;66.80
16627;DHT22;8427;52.204;7.202;2023-04-25T15:59:05;8.30;66.00
16627;DHT22;8427;52.204;7.202;2023-04-25T16:01:33;8.30;64.20
16627;DHT22;8427;52.204;7.202;2023-04-25T16:04:01;8.20;63.30
16627;DHT22;8427;52.204;7.202;2023-04-25T16:06:29;8.20;64.10
16627;DHT22;8427;52.204;7.202;2023-04-25T16:08:57;8.40;63.70
16627;DHT22;8427;52.204;7.202;2023-04-25T16:11:26;8.70;65.00